Champlin, Minnesota
Current Conditions -  °F | °C
As of 4:53 PM on Monday 24 Nov 2014 (Local Time) from KMIC Reporting Station
Overcast Overcast  
Wind Chill:   Ceiling: 2600
Heat Index: 20°   Visibility: 10mi
Dew Point: 11°   Wind: 16mph
Humidity: 68%   Direction: 310°NW
Pressure: 29.67"   Gusts: NA
Location:  45.17°N, 93.39°W
Report Text: KMIC 242253Z 31014KT 10SM OVC026 M07/M12 A2967 RMK AO2 SNE41 SLP060 P0000 T10671117
Loading
Personal Weather Stations






























Interactive Weather Map New forecast layout! Learn more

10-Day Weather Forecast

Advertisements
Track Severe Weather on mobile